sensor_id;sensor_type;location;lat;lon;timestamp;pressure;altitude;pressure_sealevel;temperature;humidity
48035;BME280;33812;46.480;6.834;2024-02-26T00:03:05;91803.94;;;23.43;31.26
48035;BME280;33812;46.480;6.834;2024-02-26T00:07:07;91792.59;;;23.41;31.38
48035;BME280;33812;46.480;6.834;2024-02-26T00:11:09;91795.13;;;23.39;31.06
48035;BME280;33812;46.480;6.834;2024-02-26T00:15:12;91784.03;;;23.39;31.09
48035;BME280;33812;46.480;6.834;2024-02-26T00:19:14;91771.41;;;23.38;31.03
48035;BME280;33812;46.480;6.834;2024-02-26T00:23:16;91777.47;;;23.37;30.85
48035;BME280;33812;46.480;6.834;2024-02-26T00:27:17;91780.22;;;23.37;31.35
48035;BME280;33812;46.480;6.834;2024-02-26T00:31:21;91765.38;;;23.34;31.11
48035;BME280;33812;46.480;6.834;2024-02-26T00:35:24;91760.81;;;23.31;30.84
48035;BME280;33812;46.480;6.834;2024-02-26T00:39:26;91781.47;;;23.30;31.02
48035;BME280;33812;46.480;6.834;2024-02-26T00:43:28;91762.59;;;23.28;30.73
48035;BME280;33812;46.480;6.834;2024-02-26T00:47:33;91775.16;;;23.29;30.44
48035;BME280;33812;46.480;6.834;2024-02-26T00:51:35;91768.13;;;23.28;30.97
48035;BME280;33812;46.480;6.834;2024-02-26T00:55:36;91769.88;;;23.26;30.87
48035;BME280;33812;46.480;6.834;2024-02-26T00:59:38;91765.09;;;23.26;30.57
48035;BME280;33812;46.480;6.834;2024-02-26T01:03:41;91776.69;;;23.25;30.60
48035;BME280;33812;46.480;6.834;2024-02-26T01:07:43;91764.84;;;23.24;30.79
48035;BME280;33812;46.480;6.834;2024-02-26T01:11:46;91769.63;;;23.24;30.86
48035;BME280;33812;46.480;6.834;2024-02-26T01:15:48;91775.19;;;23.24;30.65
48035;BME280;33812;46.480;6.834;2024-02-26T01:19:51;91779.19;;;23.23;30.52
48035;BME280;33812;46.480;6.834;2024-02-26T01:23:54;91781.19;;;23.22;30.60
48035;BME280;33812;46.480;6.834;2024-02-26T01:27:55;91781.47;;;23.18;30.46
48035;BME280;33812;46.480;6.834;2024-02-26T01:31:57;91782.97;;;23.19;30.83
48035;BME280;33812;46.480;6.834;2024-02-26T01:36:00;91797.59;;;23.20;30.63
48035;BME280;33812;46.480;6.834;2024-02-26T01:40:02;91790.00;;;23.21;30.79
48035;BME280;33812;46.480;6.834;2024-02-26T01:44:05;91788.50;;;23.19;30.78
48035;BME280;33812;46.480;6.834;2024-02-26T01:48:07;91790.25;;;23.17;30.85
48035;BME280;33812;46.480;6.834;2024-02-26T01:52:12;91795.06;;;23.16;30.88
48035;BME280;33812;46.480;6.834;2024-02-26T01:56:15;91796.56;;;23.17;30.70
48035;BME280;33812;46.480;6.834;2024-02-26T02:00:19;91791.78;;;23.18;30.78
48035;BME280;33812;46.480;6.834;2024-02-26T02:04:23;91803.63;;;23.18;30.75
48035;BME280;33812;46.480;6.834;2024-02-26T02:08:27;91806.88;;;23.17;30.84
48035;BME280;33812;46.480;6.834;2024-02-26T02:12:29;91804.59;;;23.15;31.01
48035;BME280;33812;46.480;6.834;2024-02-26T02:16:33;91808.16;;;23.16;30.87
48035;BME280;33812;46.480;6.834;2024-02-26T02:20:36;91796.81;;;23.14;30.66
48035;BME280;33812;46.480;6.834;2024-02-26T02:24:38;91808.38;;;23.12;31.04
48035;BME280;33812;46.480;6.834;2024-02-26T02:28:40;91797.56;;;23.14;30.99
48035;BME280;33812;46.480;6.834;2024-02-26T02:32:42;91807.16;;;23.13;31.03
48035;BME280;33812;46.480;6.834;2024-02-26T02:36:51;91798.56;;;23.11;30.66
48035;BME280;33812;46.480;6.834;2024-02-26T02:40:54;91800.84;;;23.13;30.98
48035;BME280;33812;46.480;6.834;2024-02-26T02:44:55;91781.69;;;23.09;30.89
48035;BME280;33812;46.480;6.834;2024-02-26T02:48:57;91770.34;;;23.07;30.90
48035;BME280;33812;46.480;6.834;2024-02-26T02:53:00;91764.03;;;23.06;30.76
48035;BME280;33812;46.480;6.834;2024-02-26T02:57:02;91765.56;;;23.08;31.09
48035;BME280;33812;46.480;6.834;2024-02-26T03:01:06;91771.88;;;23.08;30.87
48035;BME280;33812;46.480;6.834;2024-02-26T03:05:08;91778.91;;;23.09;31.00
48035;BME280;33812;46.480;6.834;2024-02-26T03:09:12;91772.59;;;23.09;31.01
48035;BME280;33812;46.480;6.834;2024-02-26T03:13:13;91765.06;;;23.09;30.98
48035;BME280;33812;46.480;6.834;2024-02-26T03:17:16;91755.97;;;23.09;31.03
48035;BME280;33812;46.480;6.834;2024-02-26T03:21:18;91743.41;;;23.08;31.27
48035;BME280;33812;46.480;6.834;2024-02-26T03:25:21;91751.97;;;23.10;31.35
48035;BME280;33812;46.480;6.834;2024-02-26T03:29:24;91743.91;;;23.06;31.01
48035;BME280;33812;46.480;6.834;2024-02-26T03:33:26;91734.31;;;23.07;31.22
48035;BME280;33812;46.480;6.834;2024-02-26T03:37:27;91724.00;;;23.08;31.39
48035;BME280;33812;46.480;6.834;2024-02-26T03:41:31;91734.59;;;23.09;31.31
48035;BME280;33812;46.480;6.834;2024-02-26T03:45:33;91735.59;;;23.06;31.54
48035;BME280;33812;46.480;6.834;2024-02-26T03:49:35;91704.84;;;23.04;31.34
48035;BME280;33812;46.480;6.834;2024-02-26T03:53:37;91719.94;;;23.03;31.38
48035;BME280;33812;46.480;6.834;2024-02-26T03:57:40;91719.94;;;23.03;31.34
48035;BME280;33812;46.480;6.834;2024-02-26T04:01:45;91729.03;;;23.03;31.55
48035;BME280;33812;46.480;6.834;2024-02-26T04:05:47;91755.47;;;23.04;31.11
48035;BME280;33812;46.480;6.834;2024-02-26T04:09:49;91741.09;;;23.00;31.11
48035;BME280;33812;46.480;6.834;2024-02-26T04:13:52;91734.31;;;23.01;31.30
48035;BME280;33812;46.480;6.834;2024-02-26T04:17:54;91740.59;;;23.02;31.01
48035;BME280;33812;46.480;6.834;2024-02-26T04:21:56;91721.72;;;23.00;31.34
48035;BME280;33812;46.480;6.834;2024-02-26T04:25:58;91727.75;;;22.99;31.30
48035;BME280;33812;46.480;6.834;2024-02-26T04:30:01;91716.94;;;23.01;31.38
48035;BME280;33812;46.480;6.834;2024-02-26T04:34:04;91723.22;;;23.01;31.18
48035;BME280;33812;46.480;6.834;2024-02-26T04:38:06;91738.34;;;23.00;31.15
48035;BME280;33812;46.480;6.834;2024-02-26T04:42:07;91743.63;;;22.98;31.26
48035;BME280;33812;46.480;6.834;2024-02-26T04:46:10;91725.25;;;23.01;31.10
48035;BME280;33812;46.480;6.834;2024-02-26T04:50:12;91730.78;;;23.01;31.08
48035;BME280;33812;46.480;6.834;2024-02-26T04:54:14;91727.25;;;23.00;31.37
48035;BME280;33812;46.480;6.834;2024-02-26T04:58:16;91747.16;;;22.99;31.25
48035;BME280;33812;46.480;6.834;2024-02-26T05:02:19;91738.06;;;22.98;31.06
48035;BME280;33812;46.480;6.834;2024-02-26T05:06:21;91721.69;;;22.94;31.29
48035;BME280;33812;46.480;6.834;2024-02-26T05:10:22;91730.00;;;22.94;31.35
48035;BME280;33812;46.480;6.834;2024-02-26T05:14:24;91721.97;;;22.97;31.17
48035;BME280;33812;46.480;6.834;2024-02-26T05:18:27;91734.31;;;22.96;31.25
48035;BME280;33812;46.480;6.834;2024-02-26T05:22:29;91727.75;;;22.99;31.28
48035;BME280;33812;46.480;6.834;2024-02-26T05:26:31;91718.19;;;23.00;30.96
48035;BME280;33812;46.480;6.834;2024-02-26T05:30:33;91712.91;;;23.02;31.24
48035;BME280;33812;46.480;6.834;2024-02-26T05:34:37;91725.50;;;23.03;31.03
48035;BME280;33812;46.480;6.834;2024-02-26T05:38:42;91725.25;;;23.06;31.18
48035;BME280;33812;46.480;6.834;2024-02-26T05:42:46;91730.53;;;23.10;30.97
48035;BME280;33812;46.480;6.834;2024-02-26T05:46:49;91729.81;;;23.15;30.95
48035;BME280;33812;46.480;6.834;2024-02-26T05:50:52;91733.34;;;23.16;30.74
48035;BME280;33812;46.480;6.834;2024-02-26T05:54:54;91739.91;;;23.18;31.07
48035;BME280;33812;46.480;6.834;2024-02-26T05:58:55;91732.09;;;23.23;30.76
48035;BME280;33812;46.480;6.834;2024-02-26T06:02:57;91732.09;;;23.23;30.94
48035;BME280;33812;46.480;6.834;2024-02-26T06:07:00;91720.00;;;23.20;31.17
48035;BME280;33812;46.480;6.834;2024-02-26T06:11:05;91723.28;;;23.18;31.45
48035;BME280;33812;46.480;6.834;2024-02-26T06:15:07;91712.44;;;23.21;31.45
48035;BME280;33812;46.480;6.834;2024-02-26T06:19:09;91717.72;;;23.18;31.70
48035;BME280;33812;46.480;6.834;2024-02-26T06:23:13;91706.34;;;23.05;30.73
48035;BME280;33812;46.480;6.834;2024-02-26T06:27:14;91721.25;;;23.13;30.68
48035;BME280;33812;46.480;6.834;2024-02-26T06:31:16;91720.50;;;23.18;31.19
48035;BME280;33812;46.480;6.834;2024-02-26T06:35:18;91724.25;;;23.15;31.22
48035;BME280;33812;46.480;6.834;2024-02-26T06:39:22;91717.97;;;23.15;31.19
48035;BME280;33812;46.480;6.834;2024-02-26T06:43:24;91731.31;;;23.11;30.80
48035;BME280;33812;46.480;6.834;2024-02-26T06:47:26;91729.06;;;23.15;30.86
48035;BME280;33812;46.480;6.834;2024-02-26T06:51:28;91729.81;;;23.15;30.66
48035;BME280;33812;46.480;6.834;2024-02-26T06:55:31;91738.38;;;23.17;30.76
48035;BME280;33812;46.480;6.834;2024-02-26T06:59:32;91713.94;;;23.22;30.84
48035;BME280;33812;46.480;6.834;2024-02-26T07:03:34;91727.06;;;23.27;30.72
48035;BME280;33812;46.480;6.834;2024-02-26T07:07:36;91721.53;;;23.27;30.55
48035;BME280;33812;46.480;6.834;2024-02-26T07:11:39;91726.06;;;23.30;30.21
48035;BME280;33812;46.480;6.834;2024-02-26T07:15:42;91726.31;;;23.32;30.35
48035;BME280;33812;46.480;6.834;2024-02-26T07:19:44;91729.31;;;23.40;30.76
48035;BME280;33812;46.480;6.834;2024-02-26T07:23:45;91729.09;;;23.43;30.27
48035;BME280;33812;46.480;6.834;2024-02-26T07:27:48;91733.16;;;23.42;30.35
48035;BME280;33812;46.480;6.834;2024-02-26T07:31:50;91737.69;;;23.46;29.98
48035;BME280;33812;46.480;6.834;2024-02-26T07:35:52;91728.09;;;23.47;30.00
48035;BME280;33812;46.480;6.834;2024-02-26T07:39:54;91732.41;;;23.48;29.95
48035;BME280;33812;46.480;6.834;2024-02-26T07:43:57;91724.09;;;23.53;30.20
48035;BME280;33812;46.480;6.834;2024-02-26T07:47:59;91754.34;;;23.57;29.77
48035;BME280;33812;46.480;6.834;2024-02-26T07:52:01;91740.47;;;23.63;29.90
48035;BME280;33812;46.480;6.834;2024-02-26T07:56:03;91733.91;;;23.66;30.06
48035;BME280;33812;46.480;6.834;2024-02-26T08:00:07;91759.88;;;23.63;29.25
48035;BME280;33812;46.480;6.834;2024-02-26T08:04:09;91745.75;;;23.66;29.16
48035;BME280;33812;46.480;6.834;2024-02-26T08:08:11;91751.56;;;23.69;29.11
48035;BME280;33812;46.480;6.834;2024-02-26T08:12:12;91763.16;;;23.67;28.86
48035;BME280;33812;46.480;6.834;2024-02-26T08:16:16;91769.47;;;23.67;29.08
48035;BME280;33812;46.480;6.834;2024-02-26T08:20:17;91760.13;;;23.71;28.53
48035;BME280;33812;46.480;6.834;2024-02-26T08:24:19;91755.06;;;23.75;28.77
48035;BME280;33812;46.480;6.834;2024-02-26T08:28:21;91747.53;;;23.75;28.46
48035;BME280;33812;46.480;6.834;2024-02-26T08:32:24;91742.47;;;23.74;28.93
48035;BME280;33812;46.480;6.834;2024-02-26T08:36:26;91752.81;;;23.79;28.85
48035;BME280;33812;46.480;6.834;2024-02-26T08:40:28;91753.84;;;23.76;28.98
48035;BME280;33812;46.480;6.834;2024-02-26T08:44:29;91756.09;;;23.72;29.15
48035;BME280;33812;46.480;6.834;2024-02-26T08:48:32;91736.94;;;23.68;28.98
48035;BME280;33812;46.480;6.834;2024-02-26T08:52:34;91769.69;;;23.70;29.03
48035;BME280;33812;46.480;6.834;2024-02-26T08:56:36;91779.03;;;23.66;28.82
48035;BME280;33812;46.480;6.834;2024-02-26T09:00:38;91786.09;;;23.67;29.00
48035;BME280;33812;46.480;6.834;2024-02-26T09:04:41;91772.72;;;23.66;29.09
48035;BME280;33812;46.480;6.834;2024-02-26T09:08:42;91780.31;;;23.65;29.19
48035;BME280;33812;46.480;6.834;2024-02-26T09:12:44;91777.00;;;23.61;29.28
48035;BME280;33812;46.480;6.834;2024-02-26T09:16:46;91789.88;;;23.59;29.35
48035;BME280;33812;46.480;6.834;2024-02-26T09:20:50;91783.31;;;23.62;29.23
48035;BME280;33812;46.480;6.834;2024-02-26T09:24:52;91793.16;;;23.63;29.13
48035;BME280;33812;46.480;6.834;2024-02-26T09:28:54;91786.09;;;23.67;29.21
48035;BME280;33812;46.480;6.834;2024-02-26T09:32:55;91816.59;;;23.73;29.12
48035;BME280;33812;46.480;6.834;2024-02-26T09:36:58;91814.34;;;23.72;29.37
48035;BME280;33812;46.480;6.834;2024-02-26T09:41:00;91816.59;;;23.73;29.19
48035;BME280;33812;46.480;6.834;2024-02-26T09:45:05;91813.84;;;23.79;29.28
48035;BME280;33812;46.480;6.834;2024-02-26T09:49:08;91815.09;;;23.78;29.19
48035;BME280;33812;46.480;6.834;2024-02-26T09:53:12;91823.66;;;23.80;29.16
48035;BME280;33812;46.480;6.834;2024-02-26T09:57:15;91821.41;;;23.84;29.24
48035;BME280;33812;46.480;6.834;2024-02-26T10:01:18;91841.34;;;23.88;28.87
48035;BME280;33812;46.480;6.834;2024-02-26T10:05:21;91835.78;;;23.88;29.38
48035;BME280;33812;46.480;6.834;2024-02-26T10:09:24;91833.50;;;23.93;29.35
48035;BME280;33812;46.480;6.834;2024-02-26T10:13:26;91841.06;;;23.98;28.95
48035;BME280;33812;46.480;6.834;2024-02-26T10:17:28;91834.28;;;23.99;29.00
48035;BME280;33812;46.480;6.834;2024-02-26T10:21:30;91828.97;;;24.01;28.77
48035;BME280;33812;46.480;6.834;2024-02-26T10:25:33;91827.97;;;24.04;28.97
48035;BME280;33812;46.480;6.834;2024-02-26T10:29:35;91841.09;;;24.03;28.88
48035;BME280;33812;46.480;6.834;2024-02-26T10:33:37;91839.31;;;24.00;28.79
48035;BME280;33812;46.480;6.834;2024-02-26T10:37:40;91865.53;;;23.99;29.05
48035;BME280;33812;46.480;6.834;2024-02-26T10:41:44;91852.94;;;23.98;29.32
48035;BME280;33812;46.480;6.834;2024-02-26T10:45:45;91852.94;;;23.98;29.37
48035;BME280;33812;46.480;6.834;2024-02-26T10:49:47;91850.16;;;23.93;29.34
48035;BME280;33812;46.480;6.834;2024-02-26T10:53:51;91847.91;;;24.02;29.52
48035;BME280;33812;46.480;6.834;2024-02-26T10:57:58;91860.50;;;23.98;29.58
48035;BME280;33812;46.480;6.834;2024-02-26T11:02:00;91861.00;;;24.02;29.33
48035;BME280;33812;46.480;6.834;2024-02-26T11:06:03;91866.06;;;24.03;29.59
48035;BME280;33812;46.480;6.834;2024-02-26T11:10:07;91856.97;;;24.03;29.99
48035;BME280;33812;46.480;6.834;2024-02-26T11:14:14;91862.00;;;24.05;29.53
48035;BME280;33812;46.480;6.834;2024-02-26T11:18:16;91862.78;;;24.05;29.73
48035;BME280;33812;46.480;6.834;2024-02-26T11:22:19;91861.75;;;24.08;29.65
48035;BME280;33812;46.480;6.834;2024-02-26T11:26:23;91871.88;;;24.11;29.90
48035;BME280;33812;46.480;6.834;2024-02-26T11:30:31;91862.53;;;24.14;29.75
48035;BME280;33812;46.480;6.834;2024-02-26T11:34:34;91855.22;;;24.17;29.93
48035;BME280;33812;46.480;6.834;2024-02-26T11:38:36;91854.72;;;24.07;30.06
48035;BME280;33812;46.480;6.834;2024-02-26T11:42:43;91846.88;;;24.17;29.66
48035;BME280;33812;46.480;6.834;2024-02-26T11:46:46;91827.75;;;24.25;29.77
48035;BME280;33812;46.480;6.834;2024-02-26T11:50:50;91834.53;;;24.30;29.96
48035;BME280;33812;46.480;6.834;2024-02-26T11:54:53;91840.09;;;24.24;29.93
48035;BME280;33812;46.480;6.834;2024-02-26T11:59:00;91842.63;;;24.33;30.01
48035;BME280;33812;46.480;6.834;2024-02-26T12:03:04;91840.09;;;24.35;29.67
48035;BME280;33812;46.480;6.834;2024-02-26T12:07:12;91835.03;;;24.39;29.93
48035;BME280;33812;46.480;6.834;2024-02-26T12:11:14;91835.53;;;24.38;29.51
48035;BME280;33812;46.480;6.834;2024-02-26T12:15:16;91831.00;;;24.41;29.52
48035;BME280;33812;46.480;6.834;2024-02-26T12:19:22;91834.78;;;24.43;29.96
48035;BME280;33812;46.480;6.834;2024-02-26T12:23:24;91831.50;;;24.45;29.90
48035;BME280;33812;46.480;6.834;2024-02-26T12:27:27;91841.84;;;24.44;29.90
48035;BME280;33812;46.480;6.834;2024-02-26T12:31:28;91846.66;;;24.44;29.96
48035;BME280;33812;46.480;6.834;2024-02-26T12:35:33;91844.88;;;24.46;30.17
48035;BME280;33812;46.480;6.834;2024-02-26T12:39:34;91850.44;;;24.46;29.96
48035;BME280;33812;46.480;6.834;2024-02-26T12:43:36;91834.78;;;24.49;29.96
48035;BME280;33812;46.480;6.834;2024-02-26T12:47:39;91834.78;;;24.55;29.99
48035;BME280;33812;46.480;6.834;2024-02-26T12:51:43;91843.88;;;24.55;29.93
48035;BME280;33812;46.480;6.834;2024-02-26T12:55:45;91838.53;;;24.57;29.73
48035;BME280;33812;46.480;6.834;2024-02-26T12:59:47;91838.53;;;24.57;30.02
48035;BME280;33812;46.480;6.834;2024-02-26T13:03:49;91845.13;;;24.60;29.88
48035;BME280;33812;46.480;6.834;2024-02-26T13:07:53;91839.31;;;24.58;30.33
48035;BME280;33812;46.480;6.834;2024-02-26T13:11:55;91846.66;;;24.55;30.33
48035;BME280;33812;46.480;6.834;2024-02-26T13:16:04;91852.41;;;24.57;30.09
48035;BME280;33812;46.480;6.834;2024-02-26T13:20:08;91852.19;;;24.55;30.43
48035;BME280;33812;46.480;6.834;2024-02-26T13:24:12;91846.91;;;24.51;30.50
48035;BME280;33812;46.480;6.834;2024-02-26T13:28:16;91850.91;;;24.50;30.26
48035;BME280;33812;46.480;6.834;2024-02-26T13:32:20;91848.41;;;24.47;30.24
48035;BME280;33812;46.480;6.834;2024-02-26T13:36:22;91848.41;;;24.47;30.18
48035;BME280;33812;46.480;6.834;2024-02-26T13:40:25;91849.41;;;24.44;30.32
48035;BME280;33812;46.480;6.834;2024-02-26T13:44:27;91843.63;;;24.42;30.68
48035;BME280;33812;46.480;6.834;2024-02-26T13:48:29;91854.22;;;24.37;30.74
48035;BME280;33812;46.480;6.834;2024-02-26T13:52:31;91854.97;;;24.38;30.29
48035;BME280;33812;46.480;6.834;2024-02-26T13:56:36;91857.78;;;24.32;30.94
48035;BME280;33812;46.480;6.834;2024-02-26T14:00:37;91854.50;;;24.34;30.88
48035;BME280;33812;46.480;6.834;2024-02-26T14:04:39;91849.69;;;24.40;30.66
48035;BME280;33812;46.480;6.834;2024-02-26T14:08:41;91848.16;;;24.45;30.68
48035;BME280;33812;46.480;6.834;2024-02-26T14:12:44;91846.38;;;24.47;30.78
48035;BME280;33812;46.480;6.834;2024-02-26T14:16:46;91849.41;;;24.49;30.84
48035;BME280;33812;46.480;6.834;2024-02-26T14:20:48;91852.69;;;24.54;30.73
48035;BME280;33812;46.480;6.834;2024-02-26T14:24:50;91853.44;;;24.54;30.83
48035;BME280;33812;46.480;6.834;2024-02-26T14:28:53;91857.25;;;24.51;30.72
48035;BME280;33812;46.480;6.834;2024-02-26T14:32:55;91847.38;;;24.50;31.09
48035;BME280;33812;46.480;6.834;2024-02-26T14:36:57;91853.44;;;24.60;30.56
48035;BME280;33812;46.480;6.834;2024-02-26T14:40:58;91871.34;;;24.65;30.63
48035;BME280;33812;46.480;6.834;2024-02-26T14:45:01;91855.19;;;24.69;30.58
48035;BME280;33812;46.480;6.834;2024-02-26T14:49:05;91855.72;;;24.67;30.16
48035;BME280;33812;46.480;6.834;2024-02-26T14:53:07;91861.25;;;24.67;30.32
48035;BME280;33812;46.480;6.834;2024-02-26T14:57:08;91866.31;;;24.69;30.73
48035;BME280;33812;46.480;6.834;2024-02-26T15:01:11;91877.16;;;24.72;30.48
48035;BME280;33812;46.480;6.834;2024-02-26T15:05:13;91879.16;;;24.78;30.43
48035;BME280;33812;46.480;6.834;2024-02-26T15:09:17;91883.97;;;24.77;30.53
48035;BME280;33812;46.480;6.834;2024-02-26T15:13:19;91885.22;;;24.82;30.12
48035;BME280;33812;46.480;6.834;2024-02-26T15:17:22;91886.22;;;24.84;30.53
48035;BME280;33812;46.480;6.834;2024-02-26T15:21:24;91888.50;;;24.86;30.35
48035;BME280;33812;46.480;6.834;2024-02-26T15:25:26;91882.94;;;24.86;30.71
48035;BME280;33812;46.480;6.834;2024-02-26T15:29:28;91884.94;;;24.85;30.69
48035;BME280;33812;46.480;6.834;2024-02-26T15:33:31;91880.66;;;24.90;30.28
48035;BME280;33812;46.480;6.834;2024-02-26T15:37:33;91886.97;;;24.91;30.70
48035;BME280;33812;46.480;6.834;2024-02-26T15:41:34;91877.41;;;24.92;30.47
48035;BME280;33812;46.480;6.834;2024-02-26T15:45:36;91883.94;;;24.94;30.12
48035;BME280;33812;46.480;6.834;2024-02-26T15:49:39;91891.03;;;24.95;30.39
48035;BME280;33812;46.480;6.834;2024-02-26T15:53:41;91878.63;;;24.96;30.01
48035;BME280;33812;46.480;6.834;2024-02-26T15:57:43;91896.06;;;24.97;30.09
48035;BME280;33812;46.480;6.834;2024-02-26T16:01:44;91880.91;;;24.98;29.96
48035;BME280;33812;46.480;6.834;2024-02-26T16:05:49;91883.19;;;24.99;29.88
48035;BME280;33812;46.480;6.834;2024-02-26T16:09:51;91883.69;;;24.98;30.05
48035;BME280;33812;46.480;6.834;2024-02-26T16:13:58;91897.84;;;25.00;29.63
48035;BME280;33812;46.480;6.834;2024-02-26T16:18:03;91893.03;;;25.01;30.08
48035;BME280;33812;46.480;6.834;2024-02-26T16:22:07;91899.84;;;24.99;29.33
48035;BME280;33812;46.480;6.834;2024-02-26T16:26:08;91906.41;;;25.02;29.75
48035;BME280;33812;46.480;6.834;2024-02-26T16:30:10;91903.38;;;25.00;29.20
48035;BME280;33812;46.480;6.834;2024-02-26T16:34:13;91911.97;;;25.02;29.15
48035;BME280;33812;46.480;6.834;2024-02-26T16:38:16;91925.88;;;25.02;29.24
48035;BME280;33812;46.480;6.834;2024-02-26T16:42:18;91928.41;;;25.00;29.08
48035;BME280;33812;46.480;6.834;2024-02-26T16:46:20;91936.47;;;25.04;29.45
48035;BME280;33812;46.480;6.834;2024-02-26T16:50:22;91936.22;;;25.02;29.43
48035;BME280;33812;46.480;6.834;2024-02-26T16:54:25;91940.53;;;24.97;29.61
48035;BME280;33812;46.480;6.834;2024-02-26T16:58:26;91935.22;;;24.99;29.46
48035;BME280;33812;46.480;6.834;2024-02-26T17:02:28;91941.03;;;25.01;29.29
48035;BME280;33812;46.480;6.834;2024-02-26T17:06:30;91942.81;;;25.04;29.56
48035;BME280;33812;46.480;6.834;2024-02-26T17:10:33;91961.97;;;23.43;25.88
48035;BME280;33812;46.480;6.834;2024-02-26T17:14:36;91966.13;;;23.77;27.39
48035;BME280;33812;46.480;6.834;2024-02-26T17:18:37;91960.25;;;24.53;27.93
48035;BME280;33812;46.480;6.834;2024-02-26T17:22:39;91965.78;;;24.76;29.23
48035;BME280;33812;46.480;6.834;2024-02-26T17:26:42;91974.38;;;24.90;28.85
48035;BME280;33812;46.480;6.834;2024-02-26T17:30:45;91985.47;;;24.90;28.86
48035;BME280;33812;46.480;6.834;2024-02-26T17:34:47;92002.66;;;24.94;28.93
48035;BME280;33812;46.480;6.834;2024-02-26T17:38:49;92002.16;;;24.90;29.32
48035;BME280;33812;46.480;6.834;2024-02-26T17:42:53;92008.75;;;24.98;28.92
48035;BME280;33812;46.480;6.834;2024-02-26T17:46:55;92021.38;;;24.93;29.26
48035;BME280;33812;46.480;6.834;2024-02-26T17:50:57;92028.44;;;24.94;29.41
48035;BME280;33812;46.480;6.834;2024-02-26T17:54:58;92029.41;;;24.85;29.19
48035;BME280;33812;46.480;6.834;2024-02-26T17:59:02;92036.53;;;24.92;30.09
48035;BME280;33812;46.480;6.834;2024-02-26T18:03:04;92048.34;;;21.56;25.34
48035;BME280;33812;46.480;6.834;2024-02-26T18:07:05;92056.66;;;21.20;24.31
48035;BME280;33812;46.480;6.834;2024-02-26T18:11:08;92059.38;;;23.69;24.98
48035;BME280;33812;46.480;6.834;2024-02-26T18:15:13;92054.59;;;24.30;25.10
48035;BME280;33812;46.480;6.834;2024-02-26T18:19:15;92062.44;;;24.37;25.55
48035;BME280;33812;46.480;6.834;2024-02-26T18:23:17;92061.19;;;24.38;25.25
48035;BME280;33812;46.480;6.834;2024-02-26T18:27:18;92062.97;;;24.36;26.25
48035;BME280;33812;46.480;6.834;2024-02-26T18:31:22;92064.19;;;24.29;27.39
48035;BME280;33812;46.480;6.834;2024-02-26T18:35:23;92078.56;;;24.27;27.87
48035;BME280;33812;46.480;6.834;2024-02-26T18:39:26;92081.56;;;24.24;29.27
48035;BME280;33812;46.480;6.834;2024-02-26T18:43:28;92065.41;;;24.22;29.92
48035;BME280;33812;46.480;6.834;2024-02-26T18:47:31;92069.47;;;24.21;29.45
48035;BME280;33812;46.480;6.834;2024-02-26T18:51:33;92074.00;;;24.19;30.04
48035;BME280;33812;46.480;6.834;2024-02-26T18:55:36;92072.69;;;24.14;29.66
48035;BME280;33812;46.480;6.834;2024-02-26T18:59:38;92085.56;;;24.11;30.04
48035;BME280;33812;46.480;6.834;2024-02-26T19:03:41;92086.53;;;24.08;30.48
48035;BME280;33812;46.480;6.834;2024-02-26T19:07:45;92098.38;;;24.03;30.19
48035;BME280;33812;46.480;6.834;2024-02-26T19:11:47;92102.91;;;24.00;30.30
48035;BME280;33812;46.480;6.834;2024-02-26T19:15:51;92102.38;;;23.96;30.45
48035;BME280;33812;46.480;6.834;2024-02-26T19:19:54;92104.66;;;23.92;32.36
48035;BME280;33812;46.480;6.834;2024-02-26T19:23:57;92110.44;;;23.88;33.24
48035;BME280;33812;46.480;6.834;2024-02-26T19:27:59;92107.63;;;23.83;33.66
48035;BME280;33812;46.480;6.834;2024-02-26T19:32:01;92110.13;;;23.81;33.97
48035;BME280;33812;46.480;6.834;2024-02-26T19:36:06;92120.22;;;23.78;34.25
48035;BME280;33812;46.480;6.834;2024-02-26T19:40:09;92134.09;;;23.78;34.70
48035;BME280;33812;46.480;6.834;2024-02-26T19:44:11;92144.69;;;23.79;34.78
48035;BME280;33812;46.480;6.834;2024-02-26T19:48:14;92156.28;;;23.78;34.61
48035;BME280;33812;46.480;6.834;2024-02-26T19:52:17;92172.38;;;23.74;35.22
48035;BME280;33812;46.480;6.834;2024-02-26T19:56:20;92180.44;;;23.72;34.72
48035;BME280;33812;46.480;6.834;2024-02-26T20:00:23;92180.69;;;23.74;34.70
48035;BME280;33812;46.480;6.834;2024-02-26T20:04:24;92187.50;;;23.73;34.85
48035;BME280;33812;46.480;6.834;2024-02-26T20:08:28;92196.06;;;23.75;35.21
48035;BME280;33812;46.480;6.834;2024-02-26T20:12:31;92195.09;;;23.78;34.94
48035;BME280;33812;46.480;6.834;2024-02-26T20:16:33;92201.16;;;23.82;35.02
48035;BME280;33812;46.480;6.834;2024-02-26T20:20:35;92213.59;;;23.87;34.94
48035;BME280;33812;46.480;6.834;2024-02-26T20:24:38;92215.34;;;23.90;34.66
48035;BME280;33812;46.480;6.834;2024-02-26T20:28:40;92220.69;;;23.94;34.32
48035;BME280;33812;46.480;6.834;2024-02-26T20:32:42;92218.16;;;23.96;34.63
48035;BME280;33812;46.480;6.834;2024-02-26T20:36:44;92213.16;;;24.00;34.11
48035;BME280;33812;46.480;6.834;2024-02-26T20:40:47;92213.41;;;24.02;34.27
48035;BME280;33812;46.480;6.834;2024-02-26T20:44:50;92230.34;;;24.04;34.29
48035;BME280;33812;46.480;6.834;2024-02-26T20:48:52;92239.16;;;24.08;33.88
48035;BME280;33812;46.480;6.834;2024-02-26T20:52:53;92238.19;;;24.11;33.83
48035;BME280;33812;46.480;6.834;2024-02-26T20:56:57;92241.22;;;24.13;33.95
48035;BME280;33812;46.480;6.834;2024-02-26T21:00:58;92248.31;;;24.14;33.80
48035;BME280;33812;46.480;6.834;2024-02-26T21:05:00;92254.34;;;24.13;33.59
48035;BME280;33812;46.480;6.834;2024-02-26T21:09:02;92257.66;;;24.17;32.20
48035;BME280;33812;46.480;6.834;2024-02-26T21:13:09;92260.72;;;24.19;31.95
48035;BME280;33812;46.480;6.834;2024-02-26T21:17:12;92263.19;;;24.17;32.34
48035;BME280;33812;46.480;6.834;2024-02-26T21:21:16;92272.53;;;24.14;32.24
48035;BME280;33812;46.480;6.834;2024-02-26T21:25:19;92287.66;;;24.13;32.52